Time;durP1;ratioP1;P1;durP2;ratioP2;P2;SDS_P1;SDS_P2;PMS_P1;PMS_P2;Temp;Humidity;BMP_temperature;BMP_pressure;BME280_temperature;BME280_humidity;BME280_pressure;Samples;Min_cycle;Max_cycle;Signal;HPM_P1;HPM_P2
2022/10/22 00:01:14;;;;;;;2.97;1.80;;;14.80;99.90;;;;;;5041920;28;20217;-86
2022/10/22 00:03:40;;;;;;;2.10;1.90;;;14.80;99.90;;;;;;5041998;28;20591;-86
2022/10/22 00:06:06;;;;;;;1.63;1.60;;;14.80;99.90;;;;;;5040729;28;20199;-86
2022/10/22 00:08:32;;;;;;;1.70;1.60;;;14.80;99.90;;;;;;5041109;28;20280;-86
2022/10/22 00:10:58;;;;;;;1.93;1.67;;;14.80;99.90;;;;;;5041445;28;20215;-86
2022/10/22 00:13:24;;;;;;;3.23;1.70;;;15.00;99.90;;;;;;5041784;28;20204;-86
2022/10/22 00:15:50;;;;;;;1.80;1.70;;;15.10;99.90;;;;;;5040627;28;20703;-86
2022/10/22 00:18:17;;;;;;;2.70;1.60;;;15.10;99.90;;;;;;5055909;28;20204;-87
2022/10/22 00:20:42;;;;;;;3.00;1.60;;;15.00;99.90;;;;;;5056115;28;20222;-86
2022/10/22 00:23:08;;;;;;;2.43;1.60;;;15.00;99.90;;;;;;5042896;28;20196;-86
2022/10/22 00:25:35;;;;;;;1.70;1.60;;;14.90;99.90;;;;;;5040735;28;20237;-86
2022/10/22 00:28:01;;;;;;;1.40;1.40;;;14.90;99.90;;;;;;5041440;28;20189;-86
2022/10/22 00:30:27;;;;;;;3.63;1.53;;;14.80;99.90;;;;;;5037817;28;20267;-86
2022/10/22 00:32:52;;;;;;;1.60;1.50;;;15.00;99.90;;;;;;5038765;28;20198;-86
2022/10/22 00:35:18;;;;;;;2.57;1.50;;;14.90;99.90;;;;;;5038748;28;20208;-87
2022/10/22 00:37:44;;;;;;;1.47;1.40;;;15.00;99.90;;;;;;5037108;28;20250;-87
2022/10/22 00:40:11;;;;;;;1.40;1.40;;;15.00;99.90;;;;;;5038953;28;20213;-87
2022/10/22 00:42:37;;;;;;;1.47;1.40;;;14.90;99.90;;;;;;5030078;28;20197;-87
2022/10/22 00:45:05;;;;;;;3.43;1.63;;;14.80;99.90;;;;;;5038345;28;20186;-87
2022/10/22 00:47:54;;;;;;;1.90;1.80;;;14.80;99.90;;;;;;5038771;28;20186;-87
2022/10/22 00:50:32;;;;;;;1.80;1.70;;;14.90;99.90;;;;;;5033300;28;20212;-87
2022/10/22 00:52:59;;;;;;;1.87;1.77;;;14.90;99.90;;;;;;5036136;28;20242;-87
2022/10/22 00:55:26;;;;;;;1.60;1.50;;;15.00;99.90;;;;;;5036715;28;20313;-87
2022/10/22 00:57:55;;;;;;;1.60;1.50;;;15.10;99.90;;;;;;5038084;28;20188;-88
2022/10/22 01:00:20;;;;;;;2.37;1.53;;;15.00;99.90;;;;;;5020690;28;20210;-86
2022/10/22 01:02:49;;;;;;;1.60;1.50;;;15.10;99.90;;;;;;5036311;28;20250;-87
2022/10/22 01:05:15;;;;;;;1.63;1.53;;;15.10;99.90;;;;;;5038748;28;20185;-87
2022/10/22 01:07:45;;;;;;;1.43;1.43;;;15.20;99.90;;;;;;5038512;28;20191;-86
2022/10/22 01:10:35;;;;;;;1.33;1.33;;;15.20;99.90;;;;;;5037537;28;20583;-87
2022/10/22 01:13:24;;;;;;;1.87;1.50;;;15.20;99.90;;;;;;5037931;28;20192;-87
2022/10/22 01:16:06;;;;;;;1.67;1.50;;;15.00;99.90;;;;;;5036955;28;20212;-87
2022/10/22 01:18:53;;;;;;;1.57;1.50;;;15.00;99.90;;;;;;5037376;28;20580;-87
2022/10/22 01:21:40;;;;;;;2.03;1.50;;;14.90;99.90;;;;;;5036607;28;20227;-87
2022/10/22 01:24:23;;;;;;;1.50;1.50;;;14.70;99.90;;;;;;5036701;28;20180;-87
2022/10/22 01:27:07;;;;;;;1.50;1.50;;;14.70;99.90;;;;;;5034319;28;20183;-87
2022/10/22 01:29:35;;;;;;;1.93;1.43;;;14.80;99.90;;;;;;5037128;28;20274;-88
2022/10/22 01:32:07;;;;;;;1.80;1.47;;;14.70;99.90;;;;;;5038556;28;20190;-87
2022/10/22 01:34:33;;;;;;;1.60;1.50;;;14.90;99.90;;;;;;5037296;28;20208;-88
2022/10/22 01:37:01;;;;;;;1.70;1.60;;;14.90;99.90;;;;;;5036447;28;20195;-87
2022/10/22 01:39:29;;;;;;;3.10;1.60;;;14.80;99.90;;;;;;5036133;28;20756;-87
2022/10/22 01:41:56;;;;;;;2.47;1.50;;;14.90;99.90;;;;;;5035900;28;20227;-87
2022/10/22 01:44:40;;;;;;;1.90;1.70;;;14.90;99.90;;;;;;5035404;28;20196;-88
2022/10/22 01:47:33;;;;;;;1.50;1.40;;;14.80;99.90;;;;;;5032587;28;20195;-87
2022/10/22 01:50:28;;;;;;;1.70;1.60;;;14.80;99.90;;;;;;5035768;28;20204;-87
2022/10/22 01:53:13;;;;;;;1.53;1.43;;;14.80;99.90;;;;;;5028360;28;20201;-87
2022/10/22 01:55:41;;;;;;;1.93;1.70;;;14.70;99.90;;;;;;5035157;28;20219;-87
2022/10/22 01:58:42;;;;;;;4.93;3.70;;;14.60;99.90;;;;;;5037188;28;20646;-87
2022/10/22 02:01:14;;;;;;;1.93;1.80;;;14.60;99.90;;;;;;5042673;28;20212;-88
2022/10/22 02:04:05;;;;;;;1.70;1.60;;;14.60;99.90;;;;;;5031419;28;20575;-87
2022/10/22 02:06:32;;;;;;;1.60;1.50;;;14.50;99.90;;;;;;5036683;28;20203;-87
2022/10/22 02:09:01;;;;;;;1.70;1.60;;;14.60;99.90;;;;;;5037018;28;20668;-87
2022/10/22 02:11:26;;;;;;;1.77;1.67;;;14.50;99.90;;;;;;5031665;28;20274;-87
2022/10/22 02:13:57;;;;;;;2.17;1.90;;;14.50;99.90;;;;;;5037629;28;20197;-88
2022/10/22 02:16:46;;;;;;;1.70;1.60;;;14.50;99.90;;;;;;5038095;28;20299;-87
2022/10/22 02:19:23;;;;;;;2.07;1.70;;;14.50;99.90;;;;;;5031382;28;20185;-87
2022/10/22 02:21:49;;;;;;;1.70;1.60;;;14.40;99.90;;;;;;5031318;28;20267;-87
2022/10/22 02:24:15;;;;;;;1.77;1.67;;;14.40;99.90;;;;;;5037384;28;20658;-88
2022/10/22 02:26:50;;;;;;;2.40;1.67;;;14.30;99.90;;;;;;5022529;28;20665;-88
2022/10/22 02:29:25;;;;;;;2.53;1.70;;;14.30;99.90;;;;;;5036379;28;20184;-87
2022/10/22 02:31:54;;;;;;;3.27;1.73;;;14.30;99.90;;;;;;5036608;28;20276;-88
2022/10/22 02:34:24;;;;;;;2.80;1.70;;;14.40;99.90;;;;;;5042770;28;20219;-88
2022/10/22 02:36:51;;;;;;;1.80;1.70;;;14.30;99.90;;;;;;5031457;28;20193;-88
2022/10/22 02:39:20;;;;;;;1.60;1.50;;;14.40;99.90;;;;;;5050641;28;20175;-88
2022/10/22 02:41:46;;;;;;;2.00;1.70;;;14.50;99.90;;;;;;5054419;28;20231;-87
2022/10/22 02:44:12;;;;;;;2.07;1.70;;;14.40;99.90;;;;;;5054657;28;20198;-88
2022/10/22 02:46:39;;;;;;;4.40;1.93;;;14.40;99.90;;;;;;5040784;28;20231;-88
2022/10/22 02:49:04;;;;;;;6.77;2.03;;;14.40;99.90;;;;;;5041723;28;20197;-87
2022/10/22 02:51:30;;;;;;;2.40;1.80;;;14.40;99.90;;;;;;5041195;28;20211;-87
2022/10/22 02:53:56;;;;;;;2.70;1.70;;;14.50;99.90;;;;;;5039720;28;20193;-88
2022/10/22 02:56:21;;;;;;;2.17;1.73;;;14.60;99.90;;;;;;5041214;28;20753;-87
2022/10/22 02:58:47;;;;;;;1.93;1.70;;;14.50;99.90;;;;;;5041034;28;20189;-88
2022/10/22 03:01:13;;;;;;;1.70;1.60;;;14.30;99.90;;;;;;5043256;28;20288;-88
2022/10/22 03:03:38;;;;;;;1.93;1.73;;;14.30;99.90;;;;;;5057908;28;20221;-88
2022/10/22 03:06:04;;;;;;;1.80;1.63;;;14.30;99.90;;;;;;5043115;28;20205;-88
2022/10/22 03:08:30;;;;;;;1.83;1.70;;;14.20;99.90;;;;;;5050167;28;20204;-88
2022/10/22 03:10:55;;;;;;;2.03;1.80;;;14.20;99.90;;;;;;5039584;28;20591;-88
2022/10/22 03:13:21;;;;;;;2.50;1.80;;;14.20;99.90;;;;;;5040290;28;20806;-87
2022/10/22 03:15:50;;;;;;;2.40;2.00;;;14.20;99.90;;;;;;5038404;28;20287;-87
2022/10/22 03:18:16;;;;;;;3.10;1.50;;;14.30;99.90;;;;;;5039857;28;20478;-87
2022/10/22 03:20:42;;;;;;;2.93;1.93;;;14.40;99.90;;;;;;5039359;28;20251;-87
2022/10/22 03:23:09;;;;;;;2.00;1.90;;;14.30;99.90;;;;;;5039658;28;20224;-87
2022/10/22 03:25:35;;;;;;;2.73;2.20;;;14.30;99.90;;;;;;5039949;28;20191;-87
2022/10/22 03:28:05;;;;;;;2.23;1.93;;;14.30;99.90;;;;;;5039748;28;20200;-87
2022/10/22 03:30:31;;;;;;;1.83;1.70;;;14.30;99.90;;;;;;5038638;28;20315;-88
2022/10/22 03:32:57;;;;;;;3.80;1.90;;;14.40;99.90;;;;;;5038523;28;20243;-88
2022/10/22 03:35:23;;;;;;;2.33;1.70;;;14.40;99.90;;;;;;5039215;28;20226;-88
2022/10/22 03:37:49;;;;;;;1.73;1.63;;;14.40;99.90;;;;;;5039255;28;20185;-87
2022/10/22 03:40:16;;;;;;;1.73;1.50;;;14.30;99.90;;;;;;5039387;28;20219;-87
2022/10/22 03:42:42;;;;;;;1.70;1.60;;;14.30;99.90;;;;;;5026400;28;20198;-88
2022/10/22 03:45:08;;;;;;;3.07;1.90;;;14.20;99.90;;;;;;5038659;28;20186;-87
2022/10/22 03:47:35;;;;;;;2.33;1.60;;;14.20;99.90;;;;;;5039436;28;20562;-88
2022/10/22 03:50:01;;;;;;;3.67;1.73;;;14.20;99.90;;;;;;5031159;28;20298;-88
2022/10/22 03:52:27;;;;;;;1.80;1.70;;;14.10;99.90;;;;;;5039086;28;20195;-87
2022/10/22 03:54:52;;;;;;;1.97;1.87;;;14.00;99.90;;;;;;5038490;28;20214;-88
2022/10/22 03:57:18;;;;;;;4.90;2.00;;;13.90;99.90;;;;;;5039687;28;20203;-88
2022/10/22 03:59:45;;;;;;;1.90;1.80;;;14.00;99.90;;;;;;5057291;28;20173;-88
2022/10/22 04:02:12;;;;;;;1.87;1.73;;;14.00;99.90;;;;;;5058101;28;20177;-88
2022/10/22 04:04:38;;;;;;;1.73;1.63;;;14.00;99.90;;;;;;5057936;28;20199;-88
2022/10/22 04:07:05;;;;;;;2.80;1.70;;;14.00;99.90;;;;;;5042812;28;20208;-88
2022/10/22 04:09:32;;;;;;;2.47;1.87;;;13.90;99.90;;;;;;5039946;28;20188;-88
2022/10/22 04:11:58;;;;;;;1.90;1.70;;;13.90;99.90;;;;;;5037600;28;20224;-87
2022/10/22 04:14:23;;;;;;;3.20;1.90;;;13.90;99.90;;;;;;5037084;28;20278;-87
2022/10/22 04:16:49;;;;;;;1.87;1.77;;;13.80;99.90;;;;;;5032280;28;20563;-87
2022/10/22 04:19:15;;;;;;;1.90;1.77;;;13.90;99.90;;;;;;5038009;28;20282;-87
2022/10/22 04:21:41;;;;;;;2.50;1.80;;;14.00;99.90;;;;;;5036976;28;20236;-87
2022/10/22 04:24:07;;;;;;;1.80;1.70;;;14.00;99.90;;;;;;5038488;28;20192;-87
2022/10/22 04:26:32;;;;;;;2.00;1.90;;;14.00;99.90;;;;;;5037325;28;20235;-87
2022/10/22 04:28:58;;;;;;;2.77;2.00;;;13.90;99.90;;;;;;5038398;28;20193;-87
2022/10/22 04:31:25;;;;;;;2.63;1.90;;;14.00;99.90;;;;;;5038666;28;20208;-87
2022/10/22 04:33:55;;;;;;;1.80;1.70;;;14.10;99.90;;;;;;5036552;28;20201;-87
2022/10/22 04:36:22;;;;;;;2.07;1.90;;;14.10;99.90;;;;;;5038483;28;20267;-87
2022/10/22 04:38:56;;;;;;;1.77;1.67;;;14.10;99.90;;;;;;5039024;28;20181;-87
2022/10/22 04:41:30;;;;;;;1.70;1.60;;;14.20;99.90;;;;;;5036860;28;20665;-87
2022/10/22 04:43:57;;;;;;;1.80;1.70;;;14.30;99.90;;;;;;5034567;28;20179;-88
2022/10/22 04:46:24;;;;;;;1.90;1.60;;;14.40;99.90;;;;;;5037050;28;20196;-87
2022/10/22 04:48:50;;;;;;;1.80;1.70;;;14.40;99.90;;;;;;5037975;28;20273;-88
2022/10/22 04:51:19;;;;;;;3.63;1.90;;;14.40;99.90;;;;;;5037615;28;20213;-87
2022/10/22 04:53:45;;;;;;;2.63;1.93;;;14.40;99.90;;;;;;5037596;28;20211;-88
2022/10/22 04:56:26;;;;;;;3.60;1.70;;;14.40;99.90;;;;;;5038062;28;20205;-87
2022/10/22 04:58:54;;;;;;;3.20;3.00;;;14.40;99.90;;;;;;5038187;28;20199;-88
2022/10/22 05:01:35;;;;;;;3.30;1.70;;;14.40;99.90;;;;;;5030734;28;20219;-87
2022/10/22 05:04:02;;;;;;;2.57;2.10;;;14.40;99.90;;;;;;5037678;28;20195;-87
2022/10/22 05:06:30;;;;;;;2.20;1.70;;;14.40;99.90;;;;;;5040162;28;20671;-87
2022/10/22 05:08:58;;;;;;;4.50;1.90;;;14.30;99.90;;;;;;5035915;28;20193;-87
2022/10/22 05:11:32;;;;;;;2.33;1.90;;;14.10;99.90;;;;;;5037807;28;20216;-86
2022/10/22 05:13:59;;;;;;;1.90;1.80;;;13.90;99.90;;;;;;5038131;28;20217;-87
2022/10/22 05:16:25;;;;;;;1.90;1.80;;;13.80;99.90;;;;;;5038722;28;20215;-87
2022/10/22 05:18:52;;;;;;;2.63;1.80;;;13.80;99.90;;;;;;5040290;28;20231;-87
2022/10/22 05:21:19;;;;;;;3.93;2.10;;;13.70;99.90;;;;;;5041599;28;20274;-87
2022/10/22 05:23:47;;;;;;;3.13;2.07;;;13.70;99.90;;;;;;5039180;28;20193;-87
2022/10/22 05:26:16;;;;;;;3.10;2.10;;;13.70;99.90;;;;;;5038926;28;20192;-87
2022/10/22 05:28:42;;;;;;;5.00;1.93;;;13.60;99.90;;;;;;5036524;28;20193;-87
2022/10/22 05:31:10;;;;;;;1.87;1.77;;;13.50;99.90;;;;;;5033974;28;20272;-88
2022/10/22 05:33:39;;;;;;;3.03;2.10;;;13.50;99.90;;;;;;5037429;28;20186;-87
2022/10/22 05:36:06;;;;;;;2.50;2.20;;;13.50;99.90;;;;;;5036411;28;20205;-87
2022/10/22 05:38:34;;;;;;;3.83;2.30;;;13.50;99.90;;;;;;5036170;28;20258;-87
2022/10/22 05:41:12;;;;;;;2.10;2.00;;;13.60;99.90;;;;;;5035159;28;20214;-87
2022/10/22 05:43:37;;;;;;;5.67;2.40;;;13.70;99.90;;;;;;5035666;28;20191;-88
2022/10/22 05:46:05;;;;;;;5.60;3.03;;;13.60;99.90;;;;;;5036227;28;20198;-88
2022/10/22 05:48:31;;;;;;;2.53;2.33;;;13.50;99.90;;;;;;5036295;28;20185;-88
2022/10/22 05:51:03;;;;;;;2.67;2.23;;;13.50;99.90;;;;;;5035671;28;20715;-87
2022/10/22 05:53:29;;;;;;;2.70;2.50;;;13.60;99.90;;;;;;5040876;28;20177;-88
2022/10/22 05:55:55;;;;;;;2.57;2.37;;;13.80;99.90;;;;;;5038463;28;20201;-88
2022/10/22 05:58:20;;;;;;;4.87;2.43;;;13.80;99.90;;;;;;5035616;28;20213;-88
2022/10/22 06:00:46;;;;;;;3.37;2.80;;;13.80;99.90;;;;;;5036526;28;20271;-88
2022/10/22 06:03:12;;;;;;;2.60;2.23;;;13.80;99.90;;;;;;5036429;28;20197;-88
2022/10/22 06:05:37;;;;;;;2.77;2.30;;;13.80;99.90;;;;;;5035258;28;20199;-88
2022/10/22 06:08:03;;;;;;;4.17;2.33;;;13.90;99.90;;;;;;5037384;28;20243;-88
2022/10/22 06:10:29;;;;;;;4.47;2.57;;;13.90;99.90;;;;;;5038810;28;20276;-86
2022/10/22 06:12:55;;;;;;;3.37;2.20;;;14.00;99.90;;;;;;5037926;28;20185;-86
2022/10/22 06:15:21;;;;;;;2.63;2.43;;;14.00;99.90;;;;;;5037617;28;20321;-85
2022/10/22 06:17:47;;;;;;;3.03;2.37;;;14.00;99.90;;;;;;5028796;28;20198;-86
2022/10/22 06:20:14;;;;;;;3.80;2.30;;;14.10;99.90;;;;;;5038433;28;20297;-86
2022/10/22 06:22:39;;;;;;;2.40;2.10;;;14.00;99.90;;;;;;5038943;28;20536;-88
2022/10/22 06:25:07;;;;;;;4.10;3.70;;;14.10;99.90;;;;;;5038188;28;20189;-86
2022/10/22 06:27:33;;;;;;;2.50;2.30;;;14.00;99.90;;;;;;5039136;28;20190;-86
2022/10/22 06:29:59;;;;;;;2.70;2.50;;;14.00;99.90;;;;;;5020927;28;20651;-87
2022/10/22 06:32:25;;;;;;;3.13;2.80;;;13.90;99.90;;;;;;5038794;28;20250;-87
2022/10/22 06:34:51;;;;;;;5.63;2.70;;;14.00;99.90;;;;;;5039687;28;20233;-87
2022/10/22 06:37:16;;;;;;;3.10;2.80;;;13.90;99.90;;;;;;5040093;28;20533;-87
2022/10/22 06:39:42;;;;;;;2.30;2.10;;;13.90;99.90;;;;;;5038539;28;20217;-87
2022/10/22 06:42:08;;;;;;;2.30;2.13;;;13.80;99.90;;;;;;5040144;28;20187;-87
2022/10/22 06:44:34;;;;;;;2.60;2.40;;;13.80;99.90;;;;;;5040524;28;20200;-87
2022/10/22 06:46:59;;;;;;;2.10;2.00;;;13.80;99.90;;;;;;5038118;28;20197;-87
2022/10/22 06:49:25;;;;;;;2.40;2.20;;;13.70;99.90;;;;;;5040283;28;20239;-87
2022/10/22 06:51:52;;;;;;;2.40;2.20;;;13.80;99.90;;;;;;5039000;28;20364;-87
2022/10/22 06:54:19;;;;;;;3.57;2.50;;;13.90;99.90;;;;;;5038885;28;20187;-87
2022/10/22 06:56:44;;;;;;;3.13;2.30;;;13.90;99.90;;;;;;5038859;28;20199;-88
2022/10/22 06:59:10;;;;;;;4.07;2.80;;;14.10;99.90;;;;;;5040089;28;20548;-85
2022/10/22 07:01:37;;;;;;;2.80;2.60;;;14.10;99.90;;;;;;5039539;28;20225;-87
2022/10/22 07:04:04;;;;;;;3.23;2.93;;;14.10;99.90;;;;;;5051263;28;20207;-88
2022/10/22 07:06:30;;;;;;;2.73;2.30;;;14.10;99.90;;;;;;5054636;28;20267;-85
2022/10/22 07:08:57;;;;;;;2.57;2.37;;;14.10;99.90;;;;;;5049908;28;20213;-87
2022/10/22 07:11:38;;;;;;;3.17;2.23;;;14.30;99.90;;;;;;5037890;28;20228;-87
2022/10/22 07:14:04;;;;;;;5.83;2.30;;;14.30;99.90;;;;;;5040551;28;20188;-87
2022/10/22 07:16:29;;;;;;;3.07;2.30;;;14.20;99.90;;;;;;5038359;28;20227;-87
2022/10/22 07:18:55;;;;;;;3.77;2.40;;;14.10;99.90;;;;;;5038003;28;20189;-87
2022/10/22 07:21:21;;;;;;;3.03;2.60;;;14.00;99.90;;;;;;5039856;28;20658;-87
2022/10/22 07:23:47;;;;;;;2.40;2.20;;;14.00;99.90;;;;;;5037837;28;20319;-86
2022/10/22 07:26:15;;;;;;;2.70;2.43;;;14.00;99.90;;;;;;5038955;28;20588;-87
2022/10/22 07:28:42;;;;;;;4.27;2.60;;;14.10;99.90;;;;;;5038650;28;20179;-87
2022/10/22 07:31:09;;;;;;;2.70;2.50;;;14.00;99.90;;;;;;5039415;28;20228;-87
2022/10/22 07:33:36;;;;;;;2.10;2.00;;;14.00;99.90;;;;;;5039485;28;20221;-87
2022/10/22 07:36:04;;;;;;;2.57;2.20;;;14.00;99.90;;;;;;5039248;28;20208;-87
2022/10/22 07:38:30;;;;;;;4.90;2.47;;;14.10;99.90;;;;;;5041994;28;20278;-87
2022/10/22 07:40:57;;;;;;;2.50;2.30;;;14.10;99.90;;;;;;5046325;28;20190;-87
2022/10/22 07:43:23;;;;;;;3.40;2.77;;;14.20;99.90;;;;;;5057648;28;20197;-88
2022/10/22 07:45:49;;;;;;;7.10;3.73;;;14.20;99.90;;;;;;5057231;28;20187;-88
2022/10/22 07:48:15;;;;;;;4.40;3.20;;;14.20;99.90;;;;;;5053297;28;20193;-87
2022/10/22 07:50:41;;;;;;;4.37;3.07;;;14.20;99.90;;;;;;5038778;28;20299;-87
2022/10/22 07:53:06;;;;;;;3.80;3.10;;;14.30;99.90;;;;;;5039945;28;20195;-86
2022/10/22 07:55:33;;;;;;;3.10;2.80;;;14.40;99.90;;;;;;5039290;28;20216;-88
2022/10/22 07:57:58;;;;;;;2.53;2.37;;;14.40;99.90;;;;;;5038732;28;20189;-86
2022/10/22 08:00:24;;;;;;;2.77;2.57;;;14.30;99.90;;;;;;5038965;28;20201;-86
2022/10/22 08:02:50;;;;;;;3.63;2.90;;;14.40;99.90;;;;;;5037188;28;20212;-88
2022/10/22 08:05:16;;;;;;;3.30;3.00;;;14.50;99.90;;;;;;5037127;28;20189;-85
2022/10/22 08:07:42;;;;;;;4.63;3.17;;;14.50;99.90;;;;;;5037214;28;20326;-86
2022/10/22 08:10:09;;;;;;;3.00;2.70;;;14.50;99.90;;;;;;5031897;28;20215;-86
2022/10/22 08:12:35;;;;;;;4.50;2.60;;;14.50;99.90;;;;;;5034804;28;20192;-86
2022/10/22 08:15:01;;;;;;;2.67;2.40;;;14.50;99.90;;;;;;5036090;28;20215;-87
2022/10/22 08:17:27;;;;;;;2.77;2.10;;;14.50;99.90;;;;;;5035454;28;20194;-87
2022/10/22 08:19:53;;;;;;;2.73;2.37;;;14.50;99.90;;;;;;5033445;28;20855;-86
2022/10/22 08:22:19;;;;;;;3.97;2.47;;;14.60;99.90;;;;;;5035344;28;20222;-86
2022/10/22 08:24:45;;;;;;;3.23;2.20;;;14.70;99.90;;;;;;5035030;28;20215;-86
2022/10/22 08:27:11;;;;;;;3.27;2.00;;;15.00;99.90;;;;;;5035747;28;20294;-86
2022/10/22 08:29:37;;;;;;;4.90;2.40;;;15.10;99.90;;;;;;5035089;28;20186;-86
2022/10/22 08:32:03;;;;;;;3.73;2.23;;;15.10;99.90;;;;;;5035503;28;20221;-86
2022/10/22 08:34:29;;;;;;;3.03;2.07;;;15.10;99.90;;;;;;5026266;28;20811;-86
2022/10/22 08:36:54;;;;;;;2.10;2.00;;;15.00;99.90;;;;;;5040732;28;20189;-88
2022/10/22 08:39:20;;;;;;;2.37;2.03;;;15.10;99.90;;;;;;5050258;28;20203;-87
2022/10/22 08:41:54;;;;;;;2.57;2.10;;;15.20;99.90;;;;;;5041924;28;20220;-86
2022/10/22 08:44:47;;;;;;;3.40;2.00;;;15.20;99.90;;;;;;5043915;28;20204;-86
2022/10/22 08:47:39;;;;;;;2.60;2.00;;;15.40;99.90;;;;;;5030295;28;20227;-86
2022/10/22 08:50:08;;;;;;;2.80;1.90;;;15.60;99.90;;;;;;5033334;28;20246;-86
2022/10/22 08:52:35;;;;;;;2.00;1.90;;;15.50;99.90;;;;;;5020368;28;20275;-86
2022/10/22 08:55:02;;;;;;;2.20;2.00;;;15.60;99.90;;;;;;5035472;28;20316;-87
2022/10/22 08:57:50;;;;;;;2.70;1.90;;;15.60;99.90;;;;;;5034999;28;20192;-87
2022/10/22 09:00:51;;;;;;;3.20;1.67;;;15.70;99.90;;;;;;5033106;28;20617;-86
2022/10/22 09:03:39;;;;;;;2.10;1.90;;;15.70;99.90;;;;;;5032093;28;20199;-87
2022/10/22 09:06:12;;;;;;;2.10;1.90;;;15.80;99.90;;;;;;5025229;28;20209;-86
2022/10/22 09:08:40;;;;;;;2.00;1.80;;;15.90;99.90;;;;;;5035142;28;20684;-86
2022/10/22 09:11:12;;;;;;;2.37;1.90;;;15.80;99.90;;;;;;5034776;28;20219;-86
2022/10/22 09:13:41;;;;;;;2.57;2.00;;;15.80;99.90;;;;;;5022269;28;20229;-87
2022/10/22 09:16:17;;;;;;;1.80;1.70;;;15.80;99.90;;;;;;5034916;28;20229;-88
2022/10/22 09:18:45;;;;;;;1.90;1.80;;;15.90;99.90;;;;;;5034764;28;20208;-87
2022/10/22 09:21:46;;;;;;;2.30;2.00;;;16.10;99.90;;;;;;5034111;28;20303;-87
2022/10/22 09:24:24;;;;;;;3.27;2.10;;;16.10;99.90;;;;;;5046093;28;20913;-87
2022/10/22 09:26:50;;;;;;;6.10;2.43;;;16.10;99.90;;;;;;5034028;28;20195;-87
2022/10/22 09:29:22;;;;;;;1.90;1.77;;;16.20;99.90;;;;;;5033695;28;20185;-87
2022/10/22 09:31:47;;;;;;;2.00;1.90;;;16.40;99.90;;;;;;5034882;28;20216;-88
2022/10/22 09:34:18;;;;;;;3.13;1.80;;;16.50;99.90;;;;;;5034285;28;20840;-88
2022/10/22 09:36:43;;;;;;;2.70;2.10;;;16.60;99.90;;;;;;5033720;28;20203;-88
2022/10/22 09:39:32;;;;;;;2.80;2.20;;;16.70;99.90;;;;;;5033704;28;20210;-87
2022/10/22 09:41:58;;;;;;;2.30;2.10;;;16.70;99.90;;;;;;5036472;28;20204;-85
2022/10/22 09:44:24;;;;;;;2.10;2.00;;;16.90;99.90;;;;;;5036564;28;20527;-86
2022/10/22 09:46:50;;;;;;;2.70;2.30;;;17.20;99.90;;;;;;5039431;28;20255;-86
2022/10/22 09:49:21;;;;;;;2.27;2.10;;;17.30;99.90;;;;;;5038872;28;20194;-86
2022/10/22 09:51:56;;;;;;;3.57;2.20;;;17.50;99.90;;;;;;5043174;28;20260;-86
2022/10/22 09:54:33;;;;;;;2.47;1.90;;;17.70;99.90;;;;;;5041327;28;20194;-86
2022/10/22 09:57:20;;;;;;;2.33;2.13;;;17.70;99.90;;;;;;5039078;28;20181;-87
2022/10/22 09:59:52;;;;;;;2.83;2.17;;;17.80;99.90;;;;;;5041069;28;20685;-85
2022/10/22 10:02:25;;;;;;;3.70;2.05;;;17.90;99.90;;;;;;5041371;28;20227;-86
2022/10/22 10:04:54;;;;;;;2.40;2.20;;;18.00;99.90;;;;;;5037584;28;20183;-87
2022/10/22 10:07:26;;;;;;;6.13;2.42;;;18.00;99.90;;;;;;5032305;28;20278;-86
2022/10/22 10:09:53;;;;;;;2.00;1.90;;;18.10;99.90;;;;;;5038460;28;20187;-86
2022/10/22 10:12:33;;;;;;;2.20;2.00;;;18.30;99.90;;;;;;5039554;28;20191;-86
2022/10/22 10:15:35;;;;;;;3.63;2.13;;;18.80;99.90;;;;;;5037407;28;20204;-86
2022/10/22 10:18:01;;;;;;;2.22;2.05;;;19.00;99.90;;;;;;5016482;28;20204;-86
2022/10/22 10:20:39;;;;;;;2.85;2.40;;;19.20;99.90;;;;;;5036340;28;20213;-86
2022/10/22 10:23:26;;;;;;;2.35;2.15;;;19.40;99.00;;;;;;5039749;28;20180;-86
2022/10/22 10:26:02;;;;;;;2.30;2.10;;;19.70;99.90;;;;;;5038686;28;20547;-87
2022/10/22 10:28:49;;;;;;;2.60;2.40;;;19.90;98.00;;;;;;5047496;28;20479;-86
2022/10/22 10:31:38;;;;;;;2.20;2.10;;;20.00;96.70;;;;;;5038878;28;20205;-86
2022/10/22 10:34:19;;;;;;;3.63;2.10;;;19.90;95.20;;;;;;5039310;28;20649;-87
2022/10/22 10:36:56;;;;;;;2.35;2.10;;;19.60;98.70;;;;;;5036146;28;20201;-87
2022/10/22 10:40:12;;;;;;;2.33;2.13;;;19.20;99.30;;;;;;5039111;28;20173;-87
2022/10/22 10:42:47;;;;;;;2.20;1.98;;;19.00;99.30;;;;;;5037728;28;20272;-86
2022/10/22 10:45:35;;;;;;;2.63;2.05;;;18.90;99.90;;;;;;5038732;28;20245;-86
2022/10/22 10:48:07;;;;;;;2.30;2.10;;;19.10;97.00;;;;;;5035796;28;20556;-87
2022/10/22 10:50:58;;;;;;;2.40;2.10;;;19.40;98.20;;;;;;5034711;28;20262;-87
2022/10/22 10:53:31;;;;;;;2.58;2.10;;;19.80;94.50;;;;;;5031705;28;20220;-86
2022/10/22 10:56:40;;;;;;;2.42;2.22;;;19.80;95.10;;;;;;5031181;28;20209;-87
2022/10/22 10:59:19;;;;;;;2.42;2.22;;;20.10;94.10;;;;;;5050031;28;20271;-87
2022/10/22 11:01:55;;;;;;;3.03;2.65;;;20.10;94.40;;;;;;5046628;28;20201;-88
2022/10/22 11:04:45;;;;;;;2.42;2.22;;;20.30;93.80;;;;;;5040651;28;20191;-87
2022/10/22 11:07:16;;;;;;;2.55;2.10;;;20.40;93.60;;;;;;5026229;28;20754;-86
2022/10/22 11:09:52;;;;;;;2.03;1.92;;;20.50;91.00;;;;;;5041169;28;20185;-87
2022/10/22 11:12:25;;;;;;;2.40;2.20;;;20.50;90.10;;;;;;5040573;28;20190;-87
2022/10/22 11:15:10;;;;;;;4.95;2.80;;;20.50;90.20;;;;;;5040167;28;20190;-87
2022/10/22 11:17:40;;;;;;;5.88;2.60;;;20.50;94.00;;;;;;5039231;28;20184;-87
2022/10/22 11:20:11;;;;;;;2.72;2.40;;;20.60;89.30;;;;;;5050226;28;20823;-87
2022/10/22 11:22:46;;;;;;;2.75;2.20;;;20.90;88.60;;;;;;5058205;28;20189;-87
2022/10/22 11:25:12;;;;;;;6.32;4.63;;;21.00;88.90;;;;;;5067359;28;20186;-87
2022/10/22 11:27:59;;;;;;;2.90;2.70;;;21.20;87.70;;;;;;5054843;28;20196;-86
2022/10/22 11:30:30;;;;;;;2.75;2.33;;;21.20;88.00;;;;;;5036518;28;20205;-86
2022/10/22 11:33:00;;;;;;;2.45;2.28;;;21.70;84.60;;;;;;5039784;28;20199;-87
2022/10/22 11:35:40;;;;;;;1.98;1.83;;;21.70;81.70;;;;;;5039064;28;20211;-87
2022/10/22 11:38:09;;;;;;;3.45;2.28;;;21.90;84.30;;;;;;5038770;28;20181;-87
2022/10/22 11:40:43;;;;;;;3.38;2.28;;;22.00;84.40;;;;;;5037762;28;20255;-87
2022/10/22 11:43:24;;;;;;;2.40;2.20;;;21.90;82.70;;;;;;5034735;28;20176;-87
2022/10/22 11:46:15;;;;;;;3.28;2.50;;;22.20;80.10;;;;;;5036962;28;20188;-87
2022/10/22 11:48:41;;;;;;;2.80;2.40;;;22.30;80.40;;;;;;5037607;28;20193;-87
2022/10/22 11:51:36;;;;;;;3.80;2.30;;;22.60;76.20;;;;;;5037880;28;20201;-87
2022/10/22 11:54:24;;;;;;;5.00;2.25;;;22.70;74.40;;;;;;5050489;28;20335;-87
2022/10/22 11:56:56;;;;;;;3.38;2.53;;;22.70;75.90;;;;;;5036859;28;20200;-87
2022/10/22 11:59:58;;;;;;;2.17;1.98;;;22.70;77.10;;;;;;5036304;28;20266;-87
2022/10/22 12:02:27;;;;;;;3.10;2.30;;;22.50;75.60;;;;;;5008322;28;20747;-87
2022/10/22 12:04:55;;;;;;;3.58;2.20;;;22.50;74.90;;;;;;5036874;28;20706;-87
2022/10/22 12:07:32;;;;;;;3.03;2.13;;;22.80;72.60;;;;;;5037105;28;20215;-87
2022/10/22 12:09:58;;;;;;;2.97;2.50;;;22.90;72.00;;;;;;5038569;28;20204;-87
2022/10/22 12:12:23;;;;;;;2.72;2.30;;;22.90;71.00;;;;;;5038311;28;20670;-87
2022/10/22 12:14:54;;;;;;;2.85;2.20;;;23.10;72.10;;;;;;5037462;28;20207;-87
2022/10/22 12:17:21;;;;;;;3.75;2.80;;;23.40;72.10;;;;;;5037972;28;20189;-87
2022/10/22 12:20:01;;;;;;;4.15;2.70;;;23.80;71.10;;;;;;5037575;28;20189;-87
2022/10/22 12:22:32;;;;;;;8.52;2.80;;;23.70;66.40;;;;;;5036741;28;20184;-87
2022/10/22 12:25:01;;;;;;;2.95;2.75;;;23.50;69.30;;;;;;5034404;28;20197;-87
2022/10/22 12:27:34;;;;;;;4.82;2.80;;;23.60;67.80;;;;;;5031745;28;20185;-87
2022/10/22 12:30:01;;;;;;;3.05;2.60;;;23.60;67.00;;;;;;5036020;28;20208;-87
2022/10/22 12:32:40;;;;;;;2.70;2.50;;;23.60;66.90;;;;;;5035244;28;20236;-87
2022/10/22 12:35:13;;;;;;;3.33;2.60;;;23.70;63.50;;;;;;5034162;28;20219;-87
2022/10/22 12:37:39;;;;;;;2.92;2.60;;;24.10;61.50;;;;;;5036678;28;20204;-87
2022/10/22 12:40:20;;;;;;;5.85;3.03;;;24.50;61.50;;;;;;5036134;28;20201;-87
2022/10/22 12:42:51;;;;;;;2.95;2.40;;;24.30;64.20;;;;;;5032585;28;20187;-87
2022/10/22 12:45:17;;;;;;;3.58;2.40;;;24.60;60.10;;;;;;5033199;28;20204;-87
2022/10/22 12:47:54;;;;;;;3.38;2.53;;;24.90;58.90;;;;;;5033429;28;20205;-87
2022/10/22 12:50:28;;;;;;;2.63;2.28;;;24.20;61.10;;;;;;5035081;28;20213;-87
2022/10/22 12:52:54;;;;;;;3.25;2.53;;;24.40;58.10;;;;;;5038642;28;20272;-87
2022/10/22 12:55:27;;;;;;;2.92;2.25;;;24.30;61.30;;;;;;5035716;28;20216;-87
2022/10/22 12:57:53;;;;;;;2.50;2.30;;;24.30;60.60;;;;;;5034926;28;20654;-87
2022/10/22 13:00:27;;;;;;;3.90;2.35;;;24.50;59.10;;;;;;5034649;28;20208;-87
2022/10/22 13:02:56;;;;;;;2.72;2.50;;;24.60;56.70;;;;;;5049395;28;20181;-87
2022/10/22 13:05:29;;;;;;;3.33;2.47;;;24.00;58.10;;;;;;5034099;28;20236;-87
2022/10/22 13:08:09;;;;;;;2.70;2.42;;;24.40;57.50;;;;;;5032638;28;20278;-87